A- A+ FrançaisEnglishEspañol中国

Services sur Internet Soldes sur Internet Des idées de cadeaux Météo Météo aéro

La météo à : Autours de vous Perpignan-RivesalterTarbes-Lourdes-PyrénéesVillacoublay-Velizy Ajaccio-Napoléon-Bonaparte

manche à air

La météo aéronautique pour les pilotes, la préparation du vol avec les METAR (METeorological Aerodrome Report, message d'observation des conditions météorologiques pour l'aviation) et Les TAF (Terminal Aerodrome Forecast : message de prévision à court terme des conditions météorologiques pour l'aviation). Et les autres ressources comme les VAC (Visual Approch Chart) et les NOTAM (Notice To Airman) pour préprer les vols.

Aéroport Zenata Messali el Hadj (Algérie) / OACI DAON/ IATA TLM

L'altitude de l'aéroport Zenata Messali el Hadj est de 248 m = 814 ft. Il est situé à proximité de Tlemcen (Algérie). La météo générale à 5 jours est disponible pour Remchi situé à 5.3 km.

METAR de l'aéroport Zenata Messali el Hadj - DAON

DAON 081700Z 26012KT 9999 SCT026 14/07 Q1020

Décodage du METAR de l'aéroport Zenata Messali el Hadj (DZ)

METAR émis par DAON le vendredi 8 novembre 2019 à 17:00 heure TU. Attention ce METAR est obsolète car il a été émis il y a 14 heure et 14 minutes.

La visibilité est de supérieure à 10 km = supérieure à 6.2 sm.

La température est de 14°C = 57 °F et le point rosée est de 7°C = 45 °F . Ce qui correspond à 63% d'humidité relative.

Le QNH est de 1020 hPa = 30.12 inHg

Vent de 12 kt = 22 km/h, orienté à 260°.

Nuages : Nuages épars à 2600 ft = 790 mètres.

TAF de l'aéroport Zenata Messali el Hadj - DAON

DAON 081100Z 0812/0912 23020KT 9999 SCT026 PROB40 TEMPO 0812/0816 26020G30KT RA BECMG 0817/0819 26010KT BECMG 0902/0904 VRB02KT BECMG 0910/0912 22015KT

DAON 081100Z 0812/0912 23020KT 9999 nuages épars à 026 probabilité de 40% d'avoir temporairement 0812/0816 26020G30KT pluie devenant 0817/0819 26010KT devenant 0902/0904 VRB02KT devenant 0910/0912 22015KT

Aéroport à proximité de Zenata Messali el Hadj

Météo générale à 5 jours à Remchi (5.3 km)Aéroport Oujda Angads (50 km)Aéroport Sidi Bel Abbes (80 km)Aéroport Bou Sfer (99 km)Aéroport Oran Es Senia (101 km)Aéroport Oran Tafaroui (102 km)Aéroport Taouima Nador (134 km)

Vue aérienne de l'aéroport Zenata Messali el Hadj

NOTAM de l'aéroport Zenata Messali el Hadj

Les NOTAM sont fournis sans aucune garantie de leur actualité. Le pilote est le seul responsable de la vérification de sa validité avant de l'utiliser opérationnellement pour préparer un vol ou l'utiliser lors de sa navigation.

Pas de NOTAM

Sources des données